Time;durP1;ratioP1;P1;durP2;ratioP2;P2;SDS_P1;SDS_P2;PMS_P1;PMS_P2;Temp;Humidity;BMP_temperature;BMP_pressure;BME280_temperature;BME280_humidity;BME280_pressure;Samples;Min_cycle;Max_cycle;Signal;HPM_P1;HPM_P2
2021/07/20 00:00:06;;;;;;;32.33;29.30;;;18.30;99.90;;;;;;5092746;28;20454;-72
2021/07/20 00:02:35;;;;;;;30.90;27.90;;;18.20;99.90;;;;;;5092889;28;20500;-72
2021/07/20 00:05:04;;;;;;;32.77;29.77;;;18.10;99.90;;;;;;5092467;28;20482;-72
2021/07/20 00:07:31;;;;;;;30.47;27.70;;;18.10;99.90;;;;;;5092263;28;20446;-71
2021/07/20 00:09:57;;;;;;;30.60;27.97;;;18.10;99.90;;;;;;5092617;28;20446;-72
2021/07/20 00:12:24;;;;;;;29.80;27.30;;;18.10;99.90;;;;;;5092268;28;20454;-71
2021/07/20 00:14:51;;;;;;;31.97;29.40;;;18.00;99.90;;;;;;5092813;28;21548;-73
2021/07/20 00:17:21;;;;;;;28.43;26.03;;;18.00;99.90;;;;;;5092185;28;20450;-71
2021/07/20 00:19:48;;;;;;;29.80;27.10;;;18.00;99.90;;;;;;5092276;28;20454;-72
2021/07/20 00:22:17;;;;;;;30.63;28.07;;;18.00;99.90;;;;;;5092474;28;20450;-71
2021/07/20 00:24:43;;;;;;;29.93;27.33;;;18.00;99.90;;;;;;5092082;28;20442;-72
2021/07/20 00:27:10;;;;;;;30.23;27.80;;;18.00;99.90;;;;;;5092365;28;20458;-72
2021/07/20 00:29:37;;;;;;;30.30;27.63;;;17.90;99.90;;;;;;5092187;28;20451;-72
2021/07/20 00:32:04;;;;;;;29.43;26.73;;;17.90;99.90;;;;;;5092009;28;20933;-72
2021/07/20 00:34:31;;;;;;;29.17;26.67;;;17.90;99.90;;;;;;5091745;28;20856;-71
2021/07/20 00:36:57;;;;;;;29.07;26.57;;;17.90;99.90;;;;;;5092162;28;20623;-72
2021/07/20 00:39:26;;;;;;;29.80;27.17;;;17.90;99.90;;;;;;5091855;28;20454;-71
2021/07/20 00:41:52;;;;;;;29.60;27.03;;;17.90;99.90;;;;;;5092099;28;20549;-71
2021/07/20 00:44:19;;;;;;;27.20;24.93;;;17.80;99.90;;;;;;5091715;28;20450;-71
2021/07/20 00:46:46;;;;;;;29.20;26.57;;;17.80;99.90;;;;;;5091746;28;20891;-71
2021/07/20 00:49:13;;;;;;;27.40;25.00;;;17.80;99.90;;;;;;5091739;28;20461;-71
2021/07/20 00:51:39;;;;;;;27.93;25.33;;;17.80;99.90;;;;;;5091643;28;20450;-71
2021/07/20 00:54:06;;;;;;;29.60;27.10;;;17.80;99.90;;;;;;5091543;28;20480;-72
2021/07/20 00:56:34;;;;;;;29.40;26.80;;;17.70;99.90;;;;;;5091614;28;20450;-71
2021/07/20 00:59:01;;;;;;;28.57;26.27;;;17.70;99.90;;;;;;5091737;28;20455;-71
2021/07/20 01:01:28;;;;;;;29.10;26.60;;;17.60;99.90;;;;;;5091639;28;20450;-71
2021/07/20 01:03:56;;;;;;;28.90;26.40;;;17.70;99.90;;;;;;5090710;28;20948;-72
2021/07/20 01:06:25;;;;;;;29.50;27.13;;;17.60;99.90;;;;;;5091330;28;20482;-72
2021/07/20 01:08:52;;;;;;;29.00;26.53;;;17.50;99.90;;;;;;5091506;28;20460;-72
2021/07/20 01:11:19;;;;;;;30.50;27.77;;;17.50;99.90;;;;;;5091299;28;20474;-71
2021/07/20 01:13:48;;;;;;;30.60;27.87;;;17.50;99.90;;;;;;5091228;28;20503;-72
2021/07/20 01:16:16;;;;;;;29.93;27.37;;;17.50;99.90;;;;;;5091311;28;20511;-71
2021/07/20 01:18:44;;;;;;;29.37;26.67;;;17.40;99.90;;;;;;5091046;28;21009;-72
2021/07/20 01:21:11;;;;;;;29.77;27.17;;;17.30;99.90;;;;;;5091160;28;20957;-73
2021/07/20 01:23:43;;;;;;;31.07;28.07;;;17.30;99.90;;;;;;5091378;28;20446;-72
2021/07/20 01:26:09;;;;;;;29.50;26.90;;;17.20;99.90;;;;;;5090982;28;20482;-73
2021/07/20 01:28:38;;;;;;;30.20;27.43;;;17.20;99.90;;;;;;5091055;28;20453;-73
2021/07/20 01:31:09;;;;;;;30.53;27.93;;;17.20;99.90;;;;;;5091058;28;20969;-73
2021/07/20 01:33:42;;;;;;;30.20;27.50;;;17.10;99.90;;;;;;5091117;28;20450;-73
2021/07/20 01:36:10;;;;;;;29.13;26.53;;;17.10;99.90;;;;;;5090936;28;20453;-73
2021/07/20 01:38:40;;;;;;;30.10;27.37;;;17.00;99.90;;;;;;5090694;28;20537;-73
2021/07/20 01:41:12;;;;;;;29.10;26.60;;;17.00;99.90;;;;;;5091025;28;20457;-73
2021/07/20 01:43:41;;;;;;;32.20;29.30;;;17.00;99.90;;;;;;5090888;28;20457;-71
2021/07/20 01:46:09;;;;;;;28.10;25.60;;;16.90;99.90;;;;;;5090878;28;20485;-71
2021/07/20 01:48:39;;;;;;;30.50;27.70;;;16.90;99.90;;;;;;5090700;28;20527;-71
2021/07/20 01:51:07;;;;;;;29.90;27.20;;;16.80;99.90;;;;;;5090820;28;20462;-71
2021/07/20 01:53:35;;;;;;;29.77;27.20;;;16.80;99.90;;;;;;5090917;28;20507;-71
2021/07/20 01:56:05;;;;;;;28.83;26.17;;;16.70;99.90;;;;;;5090759;28;20439;-73
2021/07/20 01:58:32;;;;;;;28.47;26.00;;;16.70;99.90;;;;;;5090749;28;20507;-71
2021/07/20 02:00:59;;;;;;;29.10;26.57;;;16.70;99.90;;;;;;5090569;28;20450;-71
2021/07/20 02:03:46;;;;;;;30.67;28.00;;;16.60;99.90;;;;;;5090282;28;20442;-71
2021/07/20 02:09:02;;;;;;;29.53;27.00;;;16.60;99.90;;;;;;5090606;28;20451;-72
2021/07/20 02:11:35;;;;;;;30.20;27.50;;;16.60;99.90;;;;;;5090546;28;20477;-72
2021/07/20 02:14:05;;;;;;;29.17;26.67;;;16.50;99.90;;;;;;5090500;28;20466;-72
2021/07/20 02:16:35;;;;;;;29.53;27.07;;;16.50;99.90;;;;;;5094455;28;20446;-72
2021/07/20 02:19:05;;;;;;;30.50;27.73;;;16.50;99.90;;;;;;5094473;28;20499;-73
2021/07/20 02:21:33;;;;;;;30.40;27.33;;;16.40;99.90;;;;;;5094425;28;20445;-73
2021/07/20 02:24:00;;;;;;;29.20;26.63;;;16.50;99.90;;;;;;5094199;28;20862;-72
2021/07/20 02:26:28;;;;;;;29.23;26.83;;;16.40;99.90;;;;;;5093874;28;20531;-72
2021/07/20 02:28:57;;;;;;;29.57;26.97;;;16.40;99.90;;;;;;5094438;28;20449;-72
2021/07/20 02:31:25;;;;;;;30.30;27.60;;;16.40;99.90;;;;;;5094316;28;20481;-72
2021/07/20 02:33:52;;;;;;;31.23;28.07;;;16.30;99.90;;;;;;5094263;28;20457;-73
2021/07/20 02:36:20;;;;;;;30.53;27.90;;;16.30;99.90;;;;;;5094205;28;20446;-73
2021/07/20 02:38:47;;;;;;;29.47;26.87;;;16.30;99.90;;;;;;5093964;28;20442;-73
2021/07/20 02:41:14;;;;;;;31.57;28.77;;;16.20;99.90;;;;;;5094060;28;20450;-73
2021/07/20 02:43:44;;;;;;;30.87;27.80;;;16.20;99.90;;;;;;5094031;28;20849;-73
2021/07/20 02:46:13;;;;;;;29.80;27.20;;;16.20;99.90;;;;;;5093907;28;21013;-73
2021/07/20 02:48:41;;;;;;;28.50;26.20;;;16.20;99.90;;;;;;5093522;28;20470;-73
2021/07/20 02:51:10;;;;;;;30.80;27.80;;;16.20;99.90;;;;;;5094008;28;20450;-73
2021/07/20 02:53:39;;;;;;;29.30;26.40;;;16.20;99.90;;;;;;5094049;28;20457;-73
2021/07/20 02:56:08;;;;;;;29.77;27.47;;;16.20;99.90;;;;;;5093629;28;20803;-72
2021/07/20 02:58:36;;;;;;;29.33;26.77;;;16.10;99.90;;;;;;5093883;28;20495;-72
2021/07/20 03:01:04;;;;;;;30.70;27.60;;;16.10;99.90;;;;;;5093940;28;20891;-72
2021/07/20 03:03:32;;;;;;;28.93;26.50;;;16.00;99.90;;;;;;5093577;28;20781;-72
2021/07/20 03:06:02;;;;;;;30.43;27.93;;;15.90;99.90;;;;;;5093600;28;20500;-72
2021/07/20 03:08:30;;;;;;;29.77;27.17;;;15.90;99.90;;;;;;5093309;28;20442;-72
2021/07/20 03:10:59;;;;;;;30.80;27.97;;;15.90;99.90;;;;;;5093309;28;21005;-72
2021/07/20 03:13:27;;;;;;;29.20;26.63;;;15.90;99.90;;;;;;5093340;28;20482;-72
2021/07/20 03:15:54;;;;;;;27.63;25.33;;;15.90;99.90;;;;;;5093448;28;20863;-72
2021/07/20 03:18:26;;;;;;;28.17;25.50;;;15.90;99.90;;;;;;5093478;28;20811;-72
2021/07/20 03:20:55;;;;;;;27.40;25.13;;;15.90;99.90;;;;;;5093469;28;20450;-71
2021/07/20 03:23:23;;;;;;;27.40;25.10;;;15.80;99.90;;;;;;5093461;28;20450;-72
2021/07/20 03:25:51;;;;;;;29.80;26.97;;;15.70;99.90;;;;;;5093252;28;20442;-74
2021/07/20 03:28:18;;;;;;;28.07;25.60;;;15.80;99.90;;;;;;5092794;28;20495;-74
2021/07/20 03:30:45;;;;;;;29.57;26.27;;;15.70;99.90;;;;;;5093087;28;20527;-76
2021/07/20 03:33:13;;;;;;;27.73;25.30;;;15.80;99.90;;;;;;5092857;28;20455;-77
2021/07/20 03:35:40;;;;;;;29.20;26.70;;;15.70;99.90;;;;;;5092862;28;20458;-77
2021/07/20 03:38:08;;;;;;;28.47;25.90;;;15.70;99.90;;;;;;5093012;28;20446;-74
2021/07/20 03:40:36;;;;;;;29.63;26.63;;;15.70;99.90;;;;;;5092757;28;20960;-75
2021/07/20 03:43:03;;;;;;;29.27;26.43;;;15.70;99.90;;;;;;5093060;28;20446;-74
2021/07/20 03:45:30;;;;;;;29.97;27.17;;;15.70;99.90;;;;;;5092653;28;20442;-73
2021/07/20 03:47:57;;;;;;;26.77;24.27;;;15.70;99.90;;;;;;5092878;28;20737;-74
2021/07/20 03:50:24;;;;;;;28.40;25.73;;;15.70;99.90;;;;;;5092776;28;20453;-74
2021/07/20 03:52:51;;;;;;;27.07;24.77;;;15.70;99.90;;;;;;5092798;28;20453;-74
2021/07/20 03:55:20;;;;;;;27.90;25.60;;;15.70;99.90;;;;;;5092585;28;20446;-75
2021/07/20 03:57:48;;;;;;;28.10;25.60;;;15.70;99.90;;;;;;5092167;28;20955;-74
2021/07/20 04:00:16;;;;;;;29.20;26.50;;;15.70;99.90;;;;;;5092237;28;20795;-74
2021/07/20 04:02:49;;;;;;;28.43;25.60;;;15.70;99.90;;;;;;5092557;28;20509;-74
2021/07/20 04:05:17;;;;;;;30.77;27.17;;;15.80;99.90;;;;;;5092116;28;20985;-75
2021/07/20 04:07:46;;;;;;;30.07;27.30;;;15.70;99.90;;;;;;5092145;28;21275;-75
2021/07/20 04:10:14;;;;;;;29.33;26.60;;;15.70;99.90;;;;;;5091821;28;20454;-75
2021/07/20 04:12:43;;;;;;;27.30;24.90;;;15.80;99.90;;;;;;5092163;28;20466;-76
2021/07/20 04:15:13;;;;;;;29.67;26.57;;;15.80;99.90;;;;;;5092204;28;20822;-77
2021/07/20 04:17:40;;;;;;;28.47;25.93;;;15.90;99.90;;;;;;5092120;28;20938;-77
2021/07/20 04:20:08;;;;;;;28.40;25.77;;;16.00;99.90;;;;;;5091981;28;20450;-77
2021/07/20 04:22:36;;;;;;;28.13;25.53;;;16.00;99.90;;;;;;5092297;28;20447;-76
2021/07/20 04:25:03;;;;;;;27.70;25.23;;;16.00;99.90;;;;;;5092165;28;20528;-77
2021/07/20 04:27:31;;;;;;;27.53;25.00;;;16.00;99.90;;;;;;5091899;28;20504;-77
2021/07/20 04:29:59;;;;;;;28.43;25.73;;;16.10;99.90;;;;;;5091992;28;20699;-78
2021/07/20 04:32:27;;;;;;;28.93;26.43;;;16.10;99.90;;;;;;5091818;28;20820;-79
2021/07/20 04:34:56;;;;;;;27.67;25.27;;;16.10;99.90;;;;;;5091791;28;20530;-78
2021/07/20 04:37:25;;;;;;;28.97;26.27;;;16.20;99.90;;;;;;5091698;28;20503;-79
2021/07/20 04:39:51;;;;;;;26.83;24.63;;;16.20;99.90;;;;;;5091227;28;20507;-79
2021/07/20 04:42:18;;;;;;;28.10;25.60;;;16.30;99.90;;;;;;5091946;28;20450;-78
2021/07/20 04:44:45;;;;;;;28.10;25.73;;;16.50;99.90;;;;;;5091632;28;20823;-79
2021/07/20 04:47:13;;;;;;;26.20;23.90;;;16.70;99.90;;;;;;5091377;28;20494;-79
2021/07/20 04:49:41;;;;;;;26.47;24.17;;;16.80;99.90;;;;;;5091631;28;20519;-79
2021/07/20 04:52:09;;;;;;;25.87;23.43;;;17.00;99.90;;;;;;5091402;28;20454;-79
2021/07/20 04:54:36;;;;;;;25.83;23.53;;;17.30;99.90;;;;;;5091491;28;20458;-79
2021/07/20 04:57:03;;;;;;;27.13;24.83;;;17.50;99.90;;;;;;5091602;28;20473;-79
2021/07/20 04:59:31;;;;;;;27.00;24.97;;;17.70;99.90;;;;;;5091458;28;20457;-79
2021/07/20 05:01:58;;;;;;;25.37;23.33;;;17.90;99.90;;;;;;5091572;28;20527;-79
2021/07/20 05:04:28;;;;;;;26.90;24.43;;;18.30;99.90;;;;;;5091141;28;20489;-78
2021/07/20 05:06:55;;;;;;;26.70;24.60;;;18.50;99.90;;;;;;5091277;28;20482;-78
2021/07/20 05:09:22;;;;;;;26.07;23.87;;;18.50;99.90;;;;;;5091435;28;20514;-78
2021/07/20 05:11:49;;;;;;;27.83;24.90;;;18.80;99.90;;;;;;5091361;28;20442;-78
2021/07/20 05:14:18;;;;;;;25.83;23.80;;;18.80;99.90;;;;;;5091164;28;20481;-78
2021/07/20 05:16:45;;;;;;;26.37;24.00;;;18.90;99.90;;;;;;5090885;28;20446;-79
2021/07/20 05:19:13;;;;;;;28.27;25.60;;;19.10;99.90;;;;;;5091262;28;20454;-81
2021/07/20 05:21:43;;;;;;;26.03;23.93;;;19.10;99.90;;;;;;5091199;28;20453;-82
2021/07/20 05:24:10;;;;;;;26.87;24.60;;;19.20;99.90;;;;;;5091196;28;20457;-81
2021/07/20 05:26:40;;;;;;;26.83;24.13;;;19.30;99.90;;;;;;5091182;28;20491;-81
2021/07/20 05:29:08;;;;;;;25.77;23.77;;;19.40;99.90;;;;;;5091391;28;20442;-82
2021/07/20 05:31:35;;;;;;;26.10;23.70;;;19.40;99.90;;;;;;5091499;28;20474;-82
2021/07/20 05:34:02;;;;;;;24.83;22.90;;;19.80;99.90;;;;;;5091130;28;20441;-83
2021/07/20 05:36:29;;;;;;;24.13;22.30;;;20.00;99.90;;;;;;5091340;28;20828;-82
2021/07/20 05:38:57;;;;;;;25.50;23.27;;;20.10;99.90;;;;;;5090959;28;20446;-82
2021/07/20 05:41:24;;;;;;;26.50;24.23;;;20.30;99.90;;;;;;5090977;28;20454;-82
2021/07/20 05:43:51;;;;;;;28.00;25.40;;;20.30;99.90;;;;;;5091335;28;20454;-81
2021/07/20 05:46:18;;;;;;;25.17;23.13;;;20.30;99.90;;;;;;5090913;28;20439;-79
2021/07/20 05:48:45;;;;;;;26.00;23.70;;;20.30;99.90;;;;;;5090508;28;20490;-80
2021/07/20 05:51:15;;;;;;;26.07;24.03;;;20.50;99.90;;;;;;5090514;28;20450;-74
2021/07/20 05:53:42;;;;;;;23.93;22.07;;;20.50;99.90;;;;;;5090926;28;20706;-75
2021/07/20 05:56:11;;;;;;;25.10;22.53;;;20.80;99.90;;;;;;5090548;28;20450;-74
2021/07/20 05:58:38;;;;;;;27.07;25.00;;;21.10;99.90;;;;;;5090815;28;20852;-76
2021/07/20 06:01:08;;;;;;;24.67;22.67;;;21.20;99.90;;;;;;5090902;28;20450;-73
2021/07/20 06:03:35;;;;;;;24.50;22.70;;;21.30;99.90;;;;;;5091105;28;20812;-72
2021/07/20 06:06:03;;;;;;;22.70;21.20;;;21.30;99.90;;;;;;5090359;28;20482;-77
2021/07/20 06:08:31;;;;;;;25.63;23.53;;;21.40;99.90;;;;;;5090308;28;20477;-73
2021/07/20 06:10:59;;;;;;;25.13;22.93;;;21.80;99.90;;;;;;5090131;28;20737;-73
2021/07/20 06:13:31;;;;;;;25.17;23.10;;;21.80;99.90;;;;;;5087252;28;20475;-73
2021/07/20 06:15:59;;;;;;;25.23;23.20;;;22.00;99.90;;;;;;5089722;28;20453;-73
2021/07/20 06:18:26;;;;;;;23.67;21.83;;;22.30;99.90;;;;;;5090278;28;20855;-73
2021/07/20 06:20:57;;;;;;;22.47;20.97;;;22.30;99.90;;;;;;5090303;28;20457;-72
2021/07/20 06:23:25;;;;;;;22.77;20.87;;;21.90;99.90;;;;;;5088601;28;20454;-73
2021/07/20 06:25:53;;;;;;;24.63;22.27;;;21.80;99.90;;;;;;5090383;28;20798;-73
2021/07/20 06:28:22;;;;;;;22.57;20.90;;;22.10;99.90;;;;;;5090315;28;20489;-73
2021/07/20 06:30:51;;;;;;;22.67;20.97;;;22.40;99.90;;;;;;5090454;28;20507;-73
2021/07/20 06:33:19;;;;;;;24.23;22.30;;;22.50;99.90;;;;;;5089957;28;20453;-73
2021/07/20 06:35:47;;;;;;;24.37;22.30;;;22.80;99.90;;;;;;5090244;28;20454;-73
2021/07/20 06:38:16;;;;;;;25.43;23.37;;;22.90;99.90;;;;;;5090095;28;20439;-73
2021/07/20 06:40:45;;;;;;;24.83;22.83;;;22.70;99.90;;;;;;5090014;28;20453;-73
2021/07/20 06:43:13;;;;;;;24.67;22.50;;;22.70;99.90;;;;;;5089983;28;21157;-73
2021/07/20 06:45:42;;;;;;;24.70;22.17;;;22.90;99.90;;;;;;5090083;28;20474;-72
2021/07/20 06:48:13;;;;;;;24.77;22.80;;;23.20;99.90;;;;;;5089863;28;20492;-73
2021/07/20 06:50:40;;;;;;;24.13;21.93;;;23.20;99.90;;;;;;5090255;28;20961;-72
2021/07/20 06:53:07;;;;;;;24.50;22.57;;;23.50;99.90;;;;;;5090291;28;20442;-73
2021/07/20 06:55:37;;;;;;;24.47;22.53;;;24.20;99.90;;;;;;5090337;28;20442;-73
2021/07/20 06:58:06;;;;;;;24.27;22.37;;;24.30;99.60;;;;;;5090301;28;20453;-72
2021/07/20 07:00:33;;;;;;;24.93;23.03;;;24.00;99.80;;;;;;5090132;28;20541;-73
2021/07/20 07:03:01;;;;;;;24.40;22.60;;;24.30;99.90;;;;;;5092404;28;20480;-73
2021/07/20 07:05:30;;;;;;;24.90;23.00;;;24.70;99.20;;;;;;5093601;28;20846;-73
2021/07/20 07:07:58;;;;;;;24.97;22.90;;;24.40;99.40;;;;;;5093328;28;20482;-73
2021/07/20 07:10:25;;;;;;;24.60;22.70;;;24.00;99.90;;;;;;5093326;28;20450;-72
2021/07/20 07:12:53;;;;;;;23.53;21.93;;;24.60;99.20;;;;;;5093415;28;20973;-73
2021/07/20 07:15:21;;;;;;;24.53;22.97;;;24.60;99.00;;;;;;5093708;28;20450;-73
2021/07/20 07:17:49;;;;;;;24.30;22.30;;;25.40;97.80;;;;;;5093538;28;20441;-73
2021/07/20 07:20:19;;;;;;;24.17;22.27;;;25.30;97.30;;;;;;5093392;28;20446;-73
2021/07/20 07:22:49;;;;;;;23.93;22.23;;;25.20;97.20;;;;;;5093183;28;20454;-73
2021/07/20 07:25:18;;;;;;;23.63;21.70;;;25.80;96.80;;;;;;5093236;28;20446;-74
2021/07/20 07:27:46;;;;;;;23.80;22.10;;;26.00;96.20;;;;;;5093249;28;20551;-74
2021/07/20 07:30:14;;;;;;;26.10;24.30;;;26.20;95.40;;;;;;5093216;28;20450;-73
2021/07/20 07:32:41;;;;;;;25.70;23.40;;;26.20;95.40;;;;;;5092919;28;20450;-73
2021/07/20 07:35:10;;;;;;;25.33;23.53;;;26.00;95.50;;;;;;5093036;28;20455;-73
2021/07/20 07:37:37;;;;;;;23.00;21.37;;;26.70;94.80;;;;;;5093143;28;20521;-74
2021/07/20 07:40:08;;;;;;;24.57;22.73;;;27.40;93.60;;;;;;5093072;28;20446;-73
2021/07/20 07:42:36;;;;;;;23.50;21.80;;;27.50;92.80;;;;;;5093021;28;20960;-73
2021/07/20 07:45:04;;;;;;;23.83;22.23;;;27.30;93.40;;;;;;5092939;28;20442;-74
2021/07/20 07:47:32;;;;;;;24.53;22.47;;;27.50;92.50;;;;;;5092340;28;20494;-74
2021/07/20 07:49:59;;;;;;;25.83;23.77;;;27.80;91.90;;;;;;5092727;28;20604;-74
2021/07/20 07:52:26;;;;;;;24.47;22.83;;;28.10;91.60;;;;;;5092661;28;20948;-73
2021/07/20 07:54:53;;;;;;;24.03;22.20;;;28.50;91.00;;;;;;5092735;28;20454;-73
2021/07/20 07:57:23;;;;;;;25.30;23.20;;;28.40;91.20;;;;;;5092775;28;20465;-74
2021/07/20 07:59:54;;;;;;;24.20;22.33;;;28.90;90.90;;;;;;5092829;28;20453;-73
2021/07/20 08:02:28;;;;;;;24.93;23.07;;;29.00;89.80;;;;;;5092396;28;20497;-73
2021/07/20 08:04:56;;;;;;;23.13;21.63;;;29.30;88.80;;;;;;5092318;28;20489;-73
2021/07/20 08:07:24;;;;;;;23.93;22.10;;;28.90;89.40;;;;;;5092170;28;20442;-73
2021/07/20 08:09:52;;;;;;;24.70;22.83;;;29.50;86.40;;;;;;5092778;28;20514;-73
2021/07/20 08:12:21;;;;;;;24.07;22.43;;;29.70;86.50;;;;;;5099470;28;20466;-73
2021/07/20 08:14:48;;;;;;;24.37;22.67;;;29.00;86.40;;;;;;5113049;28;20445;-73
2021/07/20 08:17:16;;;;;;;23.73;22.23;;;28.80;87.30;;;;;;5112956;28;20449;-73
2021/07/20 08:19:44;;;;;;;24.23;22.73;;;29.20;86.00;;;;;;5113007;28;20457;-73
2021/07/20 08:22:15;;;;;;;22.97;21.47;;;29.00;86.80;;;;;;5112839;28;20445;-73
2021/07/20 08:24:46;;;;;;;23.50;21.80;;;29.50;85.90;;;;;;5112871;28;20548;-74
2021/07/20 08:27:20;;;;;;;24.10;22.30;;;29.60;85.00;;;;;;5112897;28;20448;-74
2021/07/20 08:29:51;;;;;;;24.43;22.83;;;29.60;84.70;;;;;;5112674;28;20442;-74
2021/07/20 08:32:21;;;;;;;23.50;21.97;;;29.80;84.20;;;;;;5112655;28;20445;-74
2021/07/20 08:34:54;;;;;;;25.20;23.43;;;30.10;83.10;;;;;;5112654;28;20490;-74
2021/07/20 08:37:21;;;;;;;24.23;22.50;;;30.70;81.00;;;;;;5112768;28;20446;-74
2021/07/20 08:39:51;;;;;;;23.63;22.03;;;30.80;79.70;;;;;;5112574;28;20445;-74
2021/07/20 08:42:26;;;;;;;24.20;22.50;;;30.60;78.20;;;;;;5112578;28;20437;-74
2021/07/20 08:45:11;;;;;;;23.07;21.67;;;30.00;79.70;;;;;;5112501;28;20441;-73
2021/07/20 08:48:09;;;;;;;23.90;22.30;;;29.00;83.00;;;;;;5112085;28;20465;-73
2021/07/20 08:50:45;;;;;;;23.80;22.07;;;29.60;82.30;;;;;;5112707;28;20457;-73
2021/07/20 08:53:19;;;;;;;21.73;20.43;;;30.20;80.20;;;;;;5112330;28;20445;-74
2021/07/20 08:55:50;;;;;;;22.13;20.53;;;29.50;80.00;;;;;;5112397;28;20449;-73
2021/07/20 08:58:23;;;;;;;23.00;21.53;;;29.20;83.50;;;;;;5112422;28;20816;-73
2021/07/20 09:00:57;;;;;;;22.10;20.63;;;29.40;82.10;;;;;;5112281;28;20473;-74
2021/07/20 09:03:43;;;;;;;23.30;21.90;;;29.10;80.60;;;;;;5112221;28;20453;-73
2021/07/20 09:06:13;;;;;;;23.60;22.00;;;29.00;82.70;;;;;;5111670;28;20939;-73
2021/07/20 09:08:44;;;;;;;24.13;22.53;;;29.70;80.70;;;;;;5111729;28;20488;-74
2021/07/20 09:11:13;;;;;;;22.07;20.77;;;30.40;77.70;;;;;;5111924;28;20544;-73
2021/07/20 09:13:44;;;;;;;22.93;21.40;;;30.20;78.50;;;;;;5111719;28;20473;-73
2021/07/20 09:16:21;;;;;;;23.90;22.10;;;30.40;77.20;;;;;;5111719;28;20441;-73
2021/07/20 09:18:53;;;;;;;23.43;21.80;;;30.10;78.60;;;;;;5111958;28;20456;-73
2021/07/20 09:21:23;;;;;;;23.87;22.23;;;29.80;78.90;;;;;;5111701;28;20449;-73
2021/07/20 09:23:58;;;;;;;23.63;22.20;;;30.70;75.90;;;;;;5112170;28;20449;-73
2021/07/20 09:26:29;;;;;;;24.80;23.33;;;30.70;74.90;;;;;;5111529;28;20453;-73
2021/07/20 09:29:02;;;;;;;24.70;23.17;;;31.40;73.20;;;;;;5111492;28;20706;-73
2021/07/20 09:31:49;;;;;;;24.23;22.53;;;31.70;72.50;;;;;;5110035;28;20957;-73
2021/07/20 09:34:22;;;;;;;24.90;22.30;;;31.40;71.00;;;;;;5110231;28;20445;-73
2021/07/20 09:37:00;;;;;;;31.47;24.63;;;31.40;72.00;;;;;;5112042;28;20454;-73
2021/07/20 09:39:50;;;;;;;24.87;23.40;;;31.40;70.80;;;;;;5111581;28;20445;-73
2021/07/20 09:42:32;;;;;;;24.07;22.47;;;31.70;70.70;;;;;;5111604;28;20510;-73
2021/07/20 09:45:04;;;;;;;25.13;23.57;;;31.70;72.40;;;;;;5111572;28;21031;-73
2021/07/20 09:47:55;;;;;;;25.03;23.53;;;32.20;71.00;;;;;;5111246;28;20988;-73
2021/07/20 09:50:23;;;;;;;23.40;22.00;;;31.50;72.20;;;;;;5111577;28;20956;-73
2021/07/20 09:53:30;;;;;;;25.53;24.03;;;31.30;72.60;;;;;;5111880;28;20445;-73
2021/07/20 09:56:10;;;;;;;25.33;23.77;;;31.70;69.80;;;;;;5100580;28;20483;-73
2021/07/20 09:58:47;;;;;;;25.83;24.20;;;32.10;69.80;;;;;;5111611;28;20445;-74
2021/07/20 10:01:19;;;;;;;25.67;23.90;;;31.60;70.10;;;;;;5111681;28;20484;-74
2021/07/20 10:03:57;;;;;;;24.80;23.20;;;30.90;69.80;;;;;;5111308;28;21003;-73
2021/07/20 10:06:36;;;;;;;24.43;23.03;;;31.00;71.40;;;;;;5111385;28;20441;-73
2021/07/20 10:09:06;;;;;;;24.70;23.00;;;31.70;68.90;;;;;;5111101;28;20912;-73
2021/07/20 10:11:40;;;;;;;25.40;23.80;;;32.00;67.90;;;;;;5111293;28;20960;-74
2021/07/20 10:14:21;;;;;;;25.10;23.40;;;31.50;69.20;;;;;;5111755;28;20915;-74
2021/07/20 10:16:54;;;;;;;26.53;24.53;;;30.70;70.80;;;;;;5111177;28;20948;-73
2021/07/20 10:19:32;;;;;;;25.53;23.57;;;30.60;71.40;;;;;;5111170;28;20832;-73
2021/07/20 10:22:01;;;;;;;26.00;24.40;;;31.30;70.10;;;;;;5111088;28;20477;-74
2021/07/20 10:24:32;;;;;;;25.33;23.53;;;31.60;68.20;;;;;;5111159;28;20816;-74
2021/07/20 10:27:04;;;;;;;25.87;23.93;;;31.70;68.30;;;;;;5111145;28;20448;-73
2021/07/20 10:29:41;;;;;;;24.70;23.13;;;32.10;67.60;;;;;;5111004;28;20485;-73
2021/07/20 10:32:13;;;;;;;24.30;22.90;;;32.00;69.10;;;;;;5111065;28;20487;-73
2021/07/20 10:34:45;;;;;;;25.67;24.07;;;31.00;68.90;;;;;;5111015;28;20814;-73
2021/07/20 10:37:18;;;;;;;24.10;22.33;;;30.50;71.70;;;;;;5112826;28;20444;-73
2021/07/20 10:39:49;;;;;;;24.87;23.17;;;31.30;69.10;;;;;;5115116;28;20929;-74
2021/07/20 10:42:23;;;;;;;26.53;24.83;;;32.60;67.30;;;;;;5115055;28;20447;-72
2021/07/20 10:44:58;;;;;;;27.23;25.23;;;33.60;64.40;;;;;;5112223;28;20448;-74
2021/07/20 10:47:31;;;;;;;26.63;24.73;;;32.60;64.60;;;;;;5114038;28;20480;-74
2021/07/20 10:50:02;;;;;;;25.90;24.00;;;31.10;68.00;;;;;;5114105;28;21028;-73
2021/07/20 10:52:58;;;;;;;25.10;23.40;;;30.80;69.50;;;;;;5114422;28;20472;-73
2021/07/20 10:55:31;;;;;;;25.80;24.20;;;31.90;66.90;;;;;;5114333;28;20441;-73
2021/07/20 10:58:01;;;;;;;26.53;24.50;;;31.50;66.40;;;;;;5114525;28;20513;-74
2021/07/20 11:00:40;;;;;;;24.23;22.57;;;31.90;66.90;;;;;;5114437;28;21014;-74
2021/07/20 11:03:15;;;;;;;26.80;25.10;;;31.50;67.20;;;;;;5114523;28;20495;-73
2021/07/20 11:05:49;;;;;;;25.63;23.90;;;31.70;66.90;;;;;;5114392;28;20445;-74
2021/07/20 11:08:17;;;;;;;25.90;24.10;;;30.80;67.30;;;;;;5114311;28;20445;-74
2021/07/20 11:10:49;;;;;;;27.17;25.40;;;30.70;68.20;;;;;;5114347;28;21084;-73
2021/07/20 11:13:20;;;;;;;26.53;24.73;;;30.60;69.20;;;;;;5114061;28;20465;-74
2021/07/20 11:15:53;;;;;;;24.07;22.57;;;31.20;69.90;;;;;;5114158;28;20850;-74
2021/07/20 11:18:22;;;;;;;25.03;23.43;;;30.60;70.10;;;;;;5114239;28;20446;-73
2021/07/20 11:20:54;;;;;;;26.97;24.97;;;31.10;68.20;;;;;;5113836;28;20933;-74
2021/07/20 11:23:23;;;;;;;26.37;24.70;;;30.90;68.30;;;;;;5114028;28;20456;-72
2021/07/20 11:25:50;;;;;;;24.97;22.93;;;29.70;71.50;;;;;;5113897;28;20825;-72
2021/07/20 11:28:18;;;;;;;25.60;23.70;;;29.30;71.00;;;;;;5113820;28;20873;-72
2021/07/20 11:30:48;;;;;;;27.40;25.60;;;29.20;74.20;;;;;;5113784;28;20505;-72
2021/07/20 11:33:17;;;;;;;26.17;24.37;;;30.30;69.50;;;;;;5113752;28;20441;-73
2021/07/20 11:35:50;;;;;;;25.40;23.70;;;31.20;68.20;;;;;;5113832;28;20468;-73
2021/07/20 11:38:21;;;;;;;27.47;24.63;;;31.90;66.30;;;;;;5113773;28;20441;-73
2021/07/20 11:40:54;;;;;;;25.77;24.03;;;31.70;65.60;;;;;;5113668;28;20453;-72
2021/07/20 11:43:27;;;;;;;27.47;25.60;;;31.90;64.70;;;;;;5113957;28;20444;-72
2021/07/20 11:45:58;;;;;;;27.07;25.30;;;32.20;63.60;;;;;;5113485;28;20453;-72
2021/07/20 11:48:30;;;;;;;26.77;24.97;;;31.10;66.50;;;;;;5112615;28;20537;-72
2021/07/20 11:51:00;;;;;;;27.30;25.10;;;30.10;69.20;;;;;;5113260;28;20506;-71
2021/07/20 11:53:37;;;;;;;27.43;25.23;;;29.30;70.50;;;;;;5113204;28;20441;-72
2021/07/20 11:56:15;;;;;;;24.20;22.60;;;28.60;73.30;;;;;;5113384;28;20449;-72
2021/07/20 11:59:26;;;;;;;26.50;24.43;;;29.10;72.20;;;;;;5113214;28;20440;-72
2021/07/20 12:02:33;;;;;;;26.10;24.37;;;30.00;68.40;;;;;;5030141;28;20449;-71
2021/07/20 12:05:16;;;;;;;26.03;24.23;;;29.80;67.90;;;;;;5097303;28;20482;-72
2021/07/20 12:07:47;;;;;;;25.77;23.70;;;29.90;69.10;;;;;;5112821;28;20441;-73
2021/07/20 12:10:38;;;;;;;26.43;24.43;;;31.30;65.10;;;;;;5112702;28;20481;-72
2021/07/20 12:13:07;;;;;;;26.13;24.33;;;32.20;64.30;;;;;;5112898;28;20837;-73
2021/07/20 12:15:35;;;;;;;24.90;23.30;;;33.30;60.00;;;;;;5112881;28;20445;-72
2021/07/20 12:18:03;;;;;;;27.33;25.53;;;34.20;59.00;;;;;;5112607;28;20445;-73
2021/07/20 12:20:31;;;;;;;24.60;22.97;;;34.20;57.30;;;;;;5112465;28;20448;-74
2021/07/20 12:22:59;;;;;;;26.03;24.37;;;33.80;58.00;;;;;;5112690;28;20449;-73
2021/07/20 12:25:29;;;;;;;25.97;23.97;;;33.30;58.70;;;;;;5112489;28;20441;-72
2021/07/20 12:27:58;;;;;;;25.67;24.00;;;32.90;59.90;;;;;;5112356;28;20528;-72
2021/07/20 12:30:27;;;;;;;24.87;22.97;;;32.30;60.00;;;;;;5112282;28;20569;-72
2021/07/20 12:32:55;;;;;;;26.20;24.40;;;31.50;61.20;;;;;;5112331;28;20929;-73
2021/07/20 12:35:23;;;;;;;24.37;22.87;;;30.50;63.20;;;;;;5112401;28;20462;-72
2021/07/20 12:38:00;;;;;;;24.93;23.43;;;30.90;62.40;;;;;;5112578;28;20449;-72
2021/07/20 12:40:29;;;;;;;25.60;23.73;;;30.50;62.20;;;;;;5112247;28;20798;-72
2021/07/20 12:43:06;;;;;;;24.17;22.40;;;29.60;62.90;;;;;;5112148;28;20450;-72
2021/07/20 12:45:33;;;;;;;24.60;23.00;;;29.80;64.50;;;;;;5112082;28;21028;-72